CheckWX is a tool to help pilots better visualize weather data.  It is not intended as a substitute for an official pre-flight weather briefing.

13:00:13 UTC

CYQD METAR
The Pas Airport
The Pas, Canada
Current

60 mins ago

CYQD 261200Z AUTO 17005KT 9SM CLR M05/M08 A2993 RMK SLP154
Observed
Mar-26 @ 12:00 UTC
Wind
  • 170° at 5 KTS
Visibility
9 SM
Flight Rules
VFR
Cloud Levels
  • Clear skies
Temperature
-5°C / 23°F
Dewpoint
-8°C / 18°F
Humidity
80%
Altimeter
29.93" Hg
Pressure
1015.4 hPa
Previous

2 hours ago

CYQD 261100Z AUTO 19005KT 9SM CLR M04/M08 A2995 RMK SLP160
Observed
Mar-26 @ 11:00 UTC
Wind
  • 190° at 5 KTS
Visibility
9 SM
Flight Rules
VFR
Cloud Levels
  • Clear skies
Temperature
-4°C / 25°F
Dewpoint
-8°C / 18°F
Humidity
74%
Altimeter
29.95" Hg
Pressure
1016 hPa
Previous

3 hours ago

CYQD 261000Z AUTO 18007KT 9SM BKN200 OVC220 M04/M08 A2997 RMK SLP167
Observed
Mar-26 @ 10:00 UTC
Wind
  • 180° at 7 KTS
Visibility
9 SM
Flight Rules
VFR
Cloud Levels
  • Broken at 20,000' AGL
  • Overcast at 22,000' AGL
Temperature
-4°C / 25°F
Dewpoint
-8°C / 18°F
Humidity
74%
Altimeter
29.97" Hg
Pressure
1016.7 hPa